createdAt,value
2023-01-18T00:03:20.769Z,0
2023-01-18T00:08:57.365Z,0
2023-01-18T00:14:42.805Z,0
2023-01-18T00:20:11.041Z,0
2023-01-18T00:26:02.651Z,0
2023-01-18T00:31:19.877Z,0
2023-01-18T00:36:52.782Z,0
2023-01-18T00:42:28.339Z,0
2023-01-18T00:48:08.813Z,0
2023-01-18T00:53:44.309Z,0
2023-01-18T00:59:11.704Z,0
2023-01-18T01:04:35.907Z,3.6
2023-01-18T01:10:13.358Z,2.4
2023-01-18T01:15:56.445Z,2.4
2023-01-18T01:21:09.136Z,2.4
2023-01-18T01:26:44.152Z,2.4
2023-01-18T01:32:38.019Z,3.6
2023-01-18T01:38:10.478Z,4.8
2023-01-18T01:43:44.594Z,3.6
2023-01-18T01:49:02.504Z,4.8
2023-01-18T01:54:41.686Z,3.6
2023-01-18T02:00:30.233Z,3.6
2023-01-18T02:05:38.485Z,4.8
2023-01-18T02:11:37.369Z,0
2023-01-18T02:16:47.505Z,3.6
2023-01-18T02:22:20.796Z,4.8
2023-01-18T02:28:15.297Z,3.6
2023-01-18T02:33:25.451Z,2.4
2023-01-18T02:39:05.733Z,3.6
2023-01-18T02:44:34.059Z,4.8
2023-01-18T02:50:10.790Z,3.6
2023-01-18T02:55:39.694Z,5.9
2023-01-18T03:01:24.191Z,4.8
2023-01-18T03:07:11.371Z,7.2
2023-01-18T03:12:20.918Z,4.8
2023-01-18T03:18:16.070Z,2.4
2023-01-18T03:23:38.226Z,3.6
2023-01-18T03:29:08.612Z,3.6
2023-01-18T03:34:53.968Z,3.6
2023-01-18T03:40:09.378Z,3.6
2023-01-18T03:45:48.161Z,0
2023-01-18T03:51:24.598Z,0
2023-01-18T03:57:09.055Z,2.4
2023-01-18T04:02:40.179Z,2.4
2023-01-18T04:08:14.410Z,3.6
2023-01-18T04:13:55.158Z,3.6
2023-01-18T04:19:26.947Z,2.4
2023-01-18T04:24:43.523Z,2.4
2023-01-18T04:30:17.307Z,2.4
2023-01-18T04:36:09.411Z,0
2023-01-18T04:41:35.399Z,2.4
2023-01-18T04:47:16.360Z,2.4
2023-01-18T04:52:47.402Z,2.4
2023-01-18T04:58:10.337Z,2.4
2023-01-18T05:03:37.928Z,2.4
2023-01-18T05:09:29.819Z,0
2023-01-18T05:14:52.809Z,0
2023-01-18T05:20:26.057Z,2.4
2023-01-18T05:26:09.136Z,0
2023-01-18T05:31:21.961Z,0
2023-01-18T05:37:15.344Z,0
2023-01-18T05:42:52.359Z,2.4
2023-01-18T05:48:08.851Z,0
2023-01-18T05:53:50.293Z,3.6
2023-01-18T05:59:19.763Z,2.4
2023-01-18T06:04:46.384Z,0
2023-01-18T06:10:30.658Z,0
2023-01-18T06:15:53.571Z,0
2023-01-18T06:21:31.456Z,0
2023-01-18T06:26:50.645Z,0
2023-01-18T06:32:35.204Z,0
2023-01-18T06:38:13.787Z,2.4
2023-01-18T06:43:41.263Z,2.4
2023-01-18T06:49:09.337Z,3.6
2023-01-18T06:54:50.839Z,2.4
2023-01-18T07:00:31.043Z,0
2023-01-18T07:05:50.536Z,0
2023-01-18T07:11:23.219Z,0
2023-01-18T07:16:52.331Z,0
2023-01-18T07:22:47.599Z,0
2023-01-18T07:28:16.398Z,0
2023-01-18T07:33:57.755Z,0
2023-01-18T07:39:28.793Z,0
2023-01-18T07:44:58.710Z,0
2023-01-18T07:50:37.990Z,0
2023-01-18T07:56:10.432Z,0
2023-01-18T08:01:22.198Z,0
2023-01-18T08:06:48.900Z,0
2023-01-18T08:12:42.044Z,0
2023-01-18T08:18:11.677Z,0
2023-01-18T08:23:50.986Z,0
2023-01-18T08:29:10.543Z,0
2023-01-18T08:34:58.827Z,0
2023-01-18T08:40:37.435Z,0
2023-01-18T08:45:46.456Z,0
2023-01-18T08:51:21.418Z,0
2023-01-18T08:57:13.871Z,0
2023-01-18T09:02:29.922Z,0
2023-01-18T09:08:04.559Z,0
2023-01-18T09:13:30.551Z,0
2023-01-18T09:19:22.810Z,0
2023-01-18T09:24:59.586Z,0
2023-01-18T09:30:22.373Z,2.4
2023-01-18T09:36:00.180Z,5.9
2023-01-18T09:41:42.290Z,9.6
2023-01-18T09:47:08.925Z,8.4
2023-01-18T09:52:25.450Z,8.4
2023-01-18T09:58:05.163Z,5.9
2023-01-18T10:03:55.539Z,0
2023-01-18T10:09:20.759Z,4.8
2023-01-18T10:14:50.132Z,11.9
2023-01-18T10:20:24.631Z,13.2
2023-01-18T10:25:56.785Z,7.2
2023-01-18T10:31:31.576Z,5.9
2023-01-18T10:37:09.368Z,0
2023-01-18T10:42:32.358Z,2.4
2023-01-18T10:48:12.815Z,0
2023-01-18T10:53:59.868Z,0
2023-01-18T10:59:16.337Z,0
2023-01-18T11:05:11.485Z,0
2023-01-18T11:10:44.938Z,0
2023-01-18T11:16:14.079Z,0
2023-01-18T11:21:36.727Z,0
2023-01-18T11:26:59.269Z,0
2023-01-18T11:32:39.691Z,0
2023-01-18T11:38:22.739Z,0
2023-01-18T11:43:49.671Z,0
2023-01-18T11:49:18.798Z,0
2023-01-18T11:55:02.174Z,0
2023-01-18T12:00:22.806Z,7.2
2023-01-18T12:05:57.142Z,7.2
2023-01-18T12:11:40.085Z,5.9
2023-01-18T12:17:29.935Z,3.6
2023-01-18T12:22:47.686Z,3.6
2023-01-18T12:28:14.594Z,2.4
2023-01-18T12:34:03.029Z,0
2023-01-18T12:39:22.103Z,2.4
2023-01-18T12:44:56.103Z,5.9
2023-01-18T12:50:29.274Z,4.8
2023-01-18T12:56:19.009Z,9.6
2023-01-18T13:02:02.864Z,7.2
2023-01-18T13:07:28.822Z,2.4
2023-01-18T13:13:01.326Z,0
2023-01-18T13:18:37.220Z,3.6
2023-01-18T13:24:09.253Z,0
2023-01-18T13:29:51.049Z,0
2023-01-18T13:35:19.863Z,0
2023-01-18T13:40:58.993Z,0
2023-01-18T13:46:13.892Z,0
2023-01-18T13:51:45.668Z,0
2023-01-18T13:57:34.858Z,0
2023-01-18T14:02:59.861Z,0
2023-01-18T14:08:31.930Z,9.6
2023-01-18T14:14:22.906Z,11.9
2023-01-18T14:19:42.439Z,11.9
2023-01-18T14:25:07.438Z,11.9
2023-01-18T14:30:39.867Z,11.9
2023-01-18T14:36:30.541Z,8.4
2023-01-18T14:42:03.595Z,8.4
2023-01-18T14:47:34.844Z,11.9
2023-01-18T14:53:12.736Z,8.4
2023-01-18T14:58:39.585Z,5.9
2023-01-18T15:04:22.207Z,7.2
2023-01-18T15:09:43.840Z,5.9
2023-01-18T15:15:15.912Z,4.8
2023-01-18T15:21:02.682Z,3.6
2023-01-18T15:26:20.059Z,5.9
2023-01-18T15:32:09.935Z,11.9
2023-01-18T15:37:49.795Z,18
2023-01-18T15:43:13.133Z,14.4
2023-01-18T15:48:51.633Z,15.6
2023-01-18T15:54:12.869Z,14.4
2023-01-18T15:59:48.257Z,14.4
2023-01-18T16:05:42.250Z,10.7
2023-01-18T16:11:08.338Z,9.6
2023-01-18T16:16:38.474Z,9.6
2023-01-18T16:22:13.396Z,10.7
2023-01-18T16:27:45.370Z,10.7
2023-01-18T16:33:35.073Z,18
2023-01-18T16:38:52.469Z,21.5
2023-01-18T16:44:36.706Z,21.5
2023-01-18T16:50:05.974Z,21.5
2023-01-18T16:55:26.417Z,22.8
2023-01-18T17:01:00.811Z,21.5
2023-01-18T17:06:33.363Z,19.2
2023-01-18T17:12:15.031Z,19.2
2023-01-18T17:18:03.933Z,19.2
2023-01-18T17:23:39.622Z,15.6
2023-01-18T17:28:52.065Z,10.7
2023-01-18T17:34:26.989Z,7.2
2023-01-18T17:40:10.000Z,10.7
2023-01-18T17:45:48.718Z,9.6
2023-01-18T17:51:16.392Z,5.9
2023-01-18T17:56:41.122Z,7.2
2023-01-18T18:02:13.534Z,5.9
2023-01-18T18:08:09.178Z,7.2
2023-01-18T18:13:32.393Z,5.9
2023-01-18T18:18:54.496Z,8.4
2023-01-18T18:24:36.240Z,7.2
2023-01-18T18:30:21.285Z,4.8
2023-01-18T18:35:54.179Z,4.8
2023-01-18T18:41:13.786Z,2.4
2023-01-18T18:46:39.902Z,4.8
2023-01-18T18:52:35.039Z,8.4
2023-01-18T18:57:53.907Z,8.4
2023-01-18T19:03:27.766Z,7.2
2023-01-18T19:09:04.384Z,9.6
2023-01-18T19:14:52.029Z,5.9
2023-01-18T19:20:08.472Z,5.9
2023-01-18T19:26:02.404Z,2.4
2023-01-18T19:31:17.619Z,4.8
2023-01-18T19:36:43.932Z,9.6
2023-01-18T19:42:19.981Z,4.8
2023-01-18T19:48:09.594Z,0
2023-01-18T19:53:33.631Z,0
2023-01-18T19:58:56.063Z,0
2023-01-18T20:04:51.488Z,3.6
2023-01-18T20:10:08.733Z,9.6
2023-01-18T20:15:48.378Z,4.8
2023-01-18T20:21:24.247Z,3.6
2023-01-18T20:27:07.211Z,2.4
2023-01-18T20:32:32.906Z,5.9
2023-01-18T20:38:06.316Z,4.8
2023-01-18T20:43:44.127Z,4.8
2023-01-18T20:49:04.040Z,3.6
2023-01-18T20:54:30.308Z,0
2023-01-18T21:00:17.714Z,3.6
2023-01-18T21:05:50.993Z,7.2
2023-01-18T21:11:34.450Z,3.6
2023-01-18T21:16:44.479Z,0
2023-01-18T21:22:31.280Z,2.4
2023-01-18T21:27:58.802Z,0
2023-01-18T21:33:21.959Z,0
2023-01-18T21:39:04.715Z,0
2023-01-18T21:44:37.865Z,0
2023-01-18T21:50:18.707Z,0
2023-01-18T21:55:48.943Z,0
2023-01-18T22:01:13.175Z,5.9
2023-01-18T22:06:55.585Z,7.2
2023-01-18T22:12:38.331Z,2.4
2023-01-18T22:18:08.127Z,2.4
2023-01-18T22:23:40.314Z,0
2023-01-18T22:28:51.871Z,0
2023-01-18T22:34:39.071Z,0
2023-01-18T22:40:08.935Z,0
2023-01-18T22:45:47.227Z,0
2023-01-18T22:51:25.576Z,0
2023-01-18T22:56:44.095Z,0
2023-01-18T23:02:37.493Z,0
2023-01-18T23:07:59.673Z,0
2023-01-18T23:13:23.783Z,0
2023-01-18T23:19:02.369Z,0
2023-01-18T23:24:22.606Z,0
2023-01-18T23:30:13.682Z,0
2023-01-18T23:35:50.468Z,0
2023-01-18T23:41:16.744Z,0
2023-01-18T23:46:38.796Z,0
2023-01-18T23:52:19.094Z,0
2023-01-18T23:57:42.922Z,0
